Time;durP1;ratioP1;P1;durP2;ratioP2;P2;SDS_P1;SDS_P2;PMS_P1;PMS_P2;Temp;Humidity;BMP_temperature;BMP_pressure;BME280_temperature;BME280_humidity;BME280_pressure;Samples;Min_cycle;Max_cycle;Signal;HPM_P1;HPM_P2
2024/02/09 00:00:21;;;;;;;;;5.75;5.75;;;;;;;;4981989;28;45385;-72
2024/02/09 00:02:46;;;;;;;;;6.50;5.00;;;;;;;;4981717;28;47360;-71
2024/02/09 00:05:13;;;;;;;;;6.00;3.75;;;;;;;;4972297;28;45322;-71
2024/02/09 00:07:39;;;;;;;;;4.25;3.25;;;;;;;;4964274;28;45384;-71
2024/02/09 00:10:05;;;;;;;;;3.50;3.50;;;;;;;;4980225;28;45544;-71
2024/02/09 00:12:30;;;;;;;;;3.50;3.25;;;;;;;;4979592;28;46781;-71
2024/02/09 00:14:57;;;;;;;;;5.00;5.00;;;;;;;;4981000;28;45383;-71
2024/02/09 00:17:23;;;;;;;;;5.50;4.75;;;;;;;;4981264;28;45900;-71
2024/02/09 00:19:48;;;;;;;;;5.67;4.00;;;;;;;;4981208;28;45475;-71
2024/02/09 00:22:13;;;;;;;;;5.33;4.00;;;;;;;;4980469;28;46259;-71
2024/02/09 00:24:42;;;;;;;;;5.00;3.25;;;;;;;;4981747;28;45365;-71
2024/02/09 00:27:07;;;;;;;;;4.25;4.00;;;;;;;;4981101;28;45364;-71
2024/02/09 00:29:32;;;;;;;;;4.25;3.00;;;;;;;;4971636;28;45261;-72
2024/02/09 00:31:57;;;;;;;;;7.00;6.00;;;;;;;;4979730;28;45497;-71
2024/02/09 00:34:23;;;;;;;;;6.67;4.00;;;;;;;;4970166;28;45484;-72
2024/02/09 00:36:49;;;;;;;;;2.00;2.00;;;;;;;;4981256;28;45605;-71
2024/02/09 00:39:15;;;;;;;;;2.00;2.00;;;;;;;;4980666;28;45494;-71
2024/02/09 00:41:40;;;;;;;;;4.00;3.00;;;;;;;;4979705;28;45423;-71
2024/02/09 00:44:05;;;;;;;;;3.33;3.33;;;;;;;;4981470;28;45329;-71
2024/02/09 00:46:32;;;;;;;;;5.50;4.00;;;;;;;;4980961;28;45460;-71
2024/02/09 00:49:02;;;;;;;;;4.75;3.50;;;;;;;;4981096;28;45353;-71
2024/02/09 00:51:28;;;;;;;;;4.00;4.00;;;;;;;;4980876;28;47125;-71
2024/02/09 00:53:53;;;;;;;;;4.00;3.00;;;;;;;;4981325;28;45267;-71
2024/02/09 00:56:18;;;;;;;;;3.33;2.33;;;;;;;;4981179;28;45626;-71
2024/02/09 00:58:43;;;;;;;;;3.00;2.00;;;;;;;;4980749;28;45379;-71
2024/02/09 01:01:09;;;;;;;;;4.00;3.00;;;;;;;;4980935;28;45480;-71
2024/02/09 01:03:35;;;;;;;;;6.25;4.00;;;;;;;;4980594;28;45325;-71
2024/02/09 01:06:00;;;;;;;;;10.25;8.75;;;;;;;;4981005;28;45539;-71
2024/02/09 01:08:27;;;;;;;;;7.67;6.00;;;;;;;;4981002;28;45345;-72
2024/02/09 01:10:53;;;;;;;;;3.00;2.00;;;;;;;;4978347;28;45489;-71
2024/02/09 02:46:13;;;;;;;;;4.50;4.00;;;;;;;;4979727;28;45458;-71
2024/02/09 03:05:02;;;;;;;;;2.00;1.75;;;;;;;;4976815;28;45537;-71
2024/02/09 03:07:27;;;;;;;;;1.25;1.25;;;;;;;;4979252;28;45484;-71
2024/02/09 03:09:53;;;;;;;;;3.00;2.33;;;;;;;;4979050;28;45520;-71
2024/02/09 03:12:18;;;;;;;;;2.67;2.67;;;;;;;;4978851;28;45363;-71
2024/02/09 03:14:44;;;;;;;;;2.00;2.00;;;;;;;;4979504;28;45408;-71
2024/02/09 03:17:09;;;;;;;;;4.00;2.00;;;;;;;;4979095;28;45475;-71
2024/02/09 03:19:35;;;;;;;;;5.00;2.00;;;;;;;;4979185;28;45515;-71
2024/02/09 03:22:00;;;;;;;;;2.50;2.50;;;;;;;;4978664;28;45573;-71
2024/02/09 03:24:26;;;;;;;;;2.67;2.00;;;;;;;;4979300;28;45466;-71
2024/02/09 03:26:51;;;;;;;;;2.00;2.00;;;;;;;;4978557;28;45364;-71
2024/02/09 03:29:16;;;;;;;;;3.33;2.00;;;;;;;;4968416;28;45523;-71
2024/02/09 03:31:42;;;;;;;;;2.00;2.00;;;;;;;;4978665;28;45359;-71
2024/02/09 03:34:08;;;;;;;;;4.50;4.50;;;;;;;;4965952;28;45317;-71
2024/02/09 03:36:34;;;;;;;;;5.00;4.00;;;;;;;;4961051;28;45368;-71
2024/02/09 03:39:01;;;;;;;;;2.75;2.50;;;;;;;;4978715;28;47260;-71
2024/02/09 03:41:26;;;;;;;;;6.75;3.00;;;;;;;;4978381;28;45534;-72
2024/02/09 03:43:52;;;;;;;;;4.33;2.33;;;;;;;;4979120;28;45556;-72
2024/02/09 03:46:17;;;;;;;;;1.75;1.75;;;;;;;;4961251;28;45263;-71
2024/02/09 03:48:42;;;;;;;;;2.00;2.00;;;;;;;;4978624;28;46330;-71
2024/02/09 03:51:07;;;;;;;;;3.00;1.00;;;;;;;;4978809;28;45875;-72
2024/02/09 03:53:33;;;;;;;;;3.00;1.00;;;;;;;;4978876;28;45526;-72
2024/02/09 03:55:59;;;;;;;;;2.00;1.25;;;;;;;;4963160;28;45684;-72
2024/02/09 03:58:24;;;;;;;;;2.00;2.00;;;;;;;;4980642;28;46043;-71
2024/02/09 04:00:49;;;;;;;;;2.00;2.00;;;;;;;;4980061;28;45397;-72
2024/02/09 04:03:15;;;;;;;;;1.00;1.00;;;;;;;;4982163;28;45333;-71
2024/02/09 04:05:40;;;;;;;;;1.25;1.25;;;;;;;;4981489;28;45358;-72
2024/02/09 04:08:06;;;;;;;;;1.75;1.50;;;;;;;;4981868;28;46276;-72
2024/02/09 04:10:31;;;;;;;;;2.00;2.00;;;;;;;;4981477;28;45333;-71
2024/02/09 04:12:58;;;;;;;;;5.00;2.00;;;;;;;;4981673;28;45329;-71
2024/02/09 04:15:24;;;;;;;;;2.25;1.00;;;;;;;;4981571;28;45511;-71
2024/02/09 04:17:51;;;;;;;;;1.00;1.00;;;;;;;;4964285;28;46016;-72
2024/02/09 04:20:17;;;;;;;;;3.00;2.50;;;;;;;;4980705;28;45358;-71
2024/02/09 04:22:42;;;;;;;;;3.25;2.00;;;;;;;;4981457;28;45611;-71
2024/02/09 04:25:07;;;;;;;;;1.67;1.67;;;;;;;;4981551;28;45418;-71
2024/02/09 04:27:33;;;;;;;;;2.50;2.00;;;;;;;;4981112;28;46736;-71
2024/02/09 04:29:58;;;;;;;;;4.25;3.00;;;;;;;;4981358;28;45356;-72
2024/02/09 04:32:23;;;;;;;;;3.33;2.33;;;;;;;;4976634;28;45494;-72
2024/02/09 04:34:50;;;;;;;;;4.00;3.00;;;;;;;;4972286;28;45656;-71
2024/02/09 04:37:15;;;;;;;;;1.50;1.00;;;;;;;;4980754;28;46102;-71
2024/02/09 04:39:41;;;;;;;;;1.00;1.00;;;;;;;;4981495;28;45559;-71
2024/02/09 04:42:06;;;;;;;;;2.00;2.00;;;;;;;;4980734;28;45300;-71
2024/02/09 04:44:33;;;;;;;;;0.00;0.00;;;;;;;;4981231;28;45523;-71
2024/02/09 04:46:58;;;;;;;;;2.25;2.25;;;;;;;;4981151;28;45399;-71
2024/02/09 04:49:24;;;;;;;;;2.67;1.00;;;;;;;;4979828;28;45379;-71
2024/02/09 04:51:50;;;;;;;;;3.25;2.00;;;;;;;;4981140;28;45449;-72
2024/02/09 04:54:15;;;;;;;;;3.50;3.00;;;;;;;;4981129;28;45328;-71
2024/02/09 04:56:41;;;;;;;;;3.67;3.00;;;;;;;;4980496;28;46147;-72
2024/02/09 04:59:09;;;;;;;;;2.00;2.00;;;;;;;;4981007;28;45302;-72
2024/02/09 05:01:38;;;;;;;;;4.75;3.25;;;;;;;;4980837;28;45481;-71
2024/02/09 05:04:06;;;;;;;;;2.00;2.00;;;;;;;;4981059;28;45333;-71
2024/02/09 05:06:31;;;;;;;;;3.75;2.00;;;;;;;;4980029;28;46269;-72
2024/02/09 05:08:57;;;;;;;;;2.00;2.00;;;;;;;;4980917;28;45638;-71
2024/02/09 05:11:28;;;;;;;;;2.50;1.75;;;;;;;;4980653;28;45340;-72
2024/02/09 05:13:54;;;;;;;;;5.25;2.50;;;;;;;;4980955;28;45350;-71
2024/02/09 05:16:19;;;;;;;;;2.25;2.25;;;;;;;;4979810;28;46209;-72
2024/02/09 05:18:45;;;;;;;;;3.50;1.00;;;;;;;;4979376;28;45510;-71
2024/02/09 05:21:10;;;;;;;;;5.00;1.00;;;;;;;;4980673;28;45246;-72
2024/02/09 05:23:36;;;;;;;;;2.75;2.00;;;;;;;;4980426;28;45321;-72
2024/02/09 05:26:01;;;;;;;;;2.75;2.00;;;;;;;;4980555;28;45885;-71
2024/02/09 05:28:26;;;;;;;;;1.33;1.33;;;;;;;;4980478;28;45336;-72
2024/02/09 05:30:52;;;;;;;;;2.00;2.00;;;;;;;;4980680;28;45585;-72
2024/02/09 05:33:17;;;;;;;;;2.75;1.75;;;;;;;;4968316;28;45295;-71
2024/02/09 05:35:42;;;;;;;;;1.67;1.33;;;;;;;;4979475;28;45554;-72
2024/02/09 05:38:08;;;;;;;;;1.75;1.75;;;;;;;;4962786;28;45427;-71
2024/02/09 05:40:33;;;;;;;;;2.00;2.00;;;;;;;;4980394;28;45413;-72
2024/02/09 05:42:58;;;;;;;;;2.00;2.00;;;;;;;;4980110;28;45392;-72
2024/02/09 05:45:24;;;;;;;;;3.00;2.00;;;;;;;;4980166;28;45640;-72
2024/02/09 05:47:49;;;;;;;;;4.00;2.75;;;;;;;;4980316;28;45461;-72
2024/02/09 05:50:15;;;;;;;;;0.67;0.67;;;;;;;;4979381;28;45550;-72
2024/02/09 05:52:40;;;;;;;;;3.00;2.00;;;;;;;;4979559;28;45431;-72
2024/02/09 05:55:09;;;;;;;;;3.00;1.33;;;;;;;;4980026;28;45583;-72
2024/02/09 05:57:37;;;;;;;;;5.00;5.00;;;;;;;;4979505;28;45455;-71
2024/02/09 06:00:03;;;;;;;;;3.00;2.00;;;;;;;;4980277;28;45426;-71
2024/02/09 06:02:30;;;;;;;;;3.25;3.00;;;;;;;;4978218;28;45552;-72
2024/02/09 06:04:55;;;;;;;;;3.25;2.50;;;;;;;;4970927;28;45506;-72
2024/02/09 06:07:27;;;;;;;;;4.33;1.33;;;;;;;;4979970;28;45333;-71
2024/02/09 06:09:53;;;;;;;;;3.50;3.00;;;;;;;;4979627;28;45420;-71
2024/02/09 06:12:18;;;;;;;;;2.00;1.00;;;;;;;;4979488;28;45377;-72
2024/02/09 06:14:43;;;;;;;;;4.00;2.00;;;;;;;;4979995;28;45579;-72
2024/02/09 06:17:12;;;;;;;;;4.00;3.00;;;;;;;;4978888;28;45313;-72
2024/02/09 06:19:37;;;;;;;;;2.00;1.00;;;;;;;;4961341;28;45393;-71
2024/02/09 06:22:04;;;;;;;;;4.00;2.00;;;;;;;;4961955;28;45350;-72
2024/02/09 06:24:30;;;;;;;;;1.00;1.00;;;;;;;;4979522;28;46203;-72
2024/02/09 06:26:56;;;;;;;;;4.00;3.00;;;;;;;;4979209;28;45301;-71
2024/02/09 06:29:22;;;;;;;;;1.75;1.75;;;;;;;;4970437;28;45446;-72
2024/02/09 06:31:47;;;;;;;;;2.00;2.00;;;;;;;;4978704;28;45333;-72
2024/02/09 06:34:12;;;;;;;;;3.00;3.00;;;;;;;;4961907;28;46092;-72
2024/02/09 06:36:39;;;;;;;;;3.00;3.00;;;;;;;;4969921;28;45629;-72
2024/02/09 06:39:06;;;;;;;;;3.25;3.00;;;;;;;;4979804;28;45471;-72
2024/02/09 06:41:31;;;;;;;;;2.00;1.25;;;;;;;;4979235;28;45513;-72
2024/02/09 06:43:57;;;;;;;;;2.67;2.00;;;;;;;;4979590;28;45414;-72
2024/02/09 06:46:22;;;;;;;;;6.00;3.00;;;;;;;;4979291;28;45389;-71
2024/02/09 06:48:47;;;;;;;;;2.50;2.00;;;;;;;;4962181;28;45647;-72
2024/02/09 06:51:17;;;;;;;;;2.00;1.00;;;;;;;;4961806;28;45517;-71
2024/02/09 06:53:42;;;;;;;;;1.25;1.00;;;;;;;;4979012;28;45429;-65
2024/02/09 06:56:11;;;;;;;;;1.33;1.33;;;;;;;;4959964;28;45582;-66
2024/02/09 06:58:37;;;;;;;;;4.00;2.00;;;;;;;;4978664;28;45569;-67
2024/02/09 07:01:05;;;;;;;;;3.00;3.00;;;;;;;;4979227;28;45345;-65
2024/02/09 07:03:30;;;;;;;;;3.00;3.00;;;;;;;;4961325;28;47410;-67
2024/02/09 07:06:01;;;;;;;;;3.33;2.00;;;;;;;;4978210;28;45289;-66
2024/02/09 07:08:36;;;;;;;;;3.00;3.00;;;;;;;;4978241;28;45381;-66
2024/02/09 07:11:03;;;;;;;;;3.00;2.00;;;;;;;;4978836;28;45372;-67
2024/02/09 07:13:28;;;;;;;;;3.75;2.75;;;;;;;;4978011;28;46647;-66
2024/02/09 07:15:53;;;;;;;;;3.00;3.00;;;;;;;;4972667;28;45374;-65
2024/02/09 07:18:19;;;;;;;;;2.50;2.00;;;;;;;;4960475;28;45507;-66
2024/02/09 07:20:44;;;;;;;;;2.00;2.00;;;;;;;;4976779;28;46544;-65
2024/02/09 07:23:09;;;;;;;;;3.00;2.00;;;;;;;;4976683;28;45473;-65
2024/02/09 07:25:34;;;;;;;;;1.00;1.00;;;;;;;;4959488;28;46275;-65
2024/02/09 07:28:00;;;;;;;;;3.67;2.33;;;;;;;;4977915;28;45441;-65
2024/02/09 07:30:26;;;;;;;;;3.25;1.50;;;;;;;;4962593;28;45366;-65
2024/02/09 07:32:52;;;;;;;;;2.00;2.00;;;;;;;;4981225;28;46453;-66
2024/02/09 07:35:17;;;;;;;;;4.75;2.00;;;;;;;;4981563;28;45373;-65
2024/02/09 07:37:42;;;;;;;;;1.00;1.00;;;;;;;;4981959;28;45524;-65
2024/02/09 07:40:09;;;;;;;;;3.67;3.67;;;;;;;;4964350;28;45588;-65
2024/02/09 07:42:34;;;;;;;;;2.00;1.25;;;;;;;;4963121;28;48432;-65
2024/02/09 07:44:59;;;;;;;;;2.00;2.00;;;;;;;;4964019;28;46072;-65
2024/02/09 07:47:24;;;;;;;;;2.33;2.00;;;;;;;;4980690;28;45412;-69
2024/02/09 07:49:50;;;;;;;;;2.00;2.00;;;;;;;;4969695;28;45497;-74
2024/02/09 07:52:15;;;;;;;;;2.33;2.00;;;;;;;;4969170;28;45841;-74
2024/02/09 07:54:40;;;;;;;;;2.00;2.00;;;;;;;;4954314;28;45773;-74
2024/02/09 07:57:06;;;;;;;;;3.00;3.00;;;;;;;;4978722;28;45424;-74
2024/02/09 07:59:31;;;;;;;;;3.75;3.00;;;;;;;;4974592;28;45570;-74
2024/02/09 08:01:57;;;;;;;;;6.50;2.00;;;;;;;;4979686;28;45392;-74
2024/02/09 08:04:25;;;;;;;;;3.00;2.25;;;;;;;;4966776;28;45503;-74
2024/02/09 08:06:50;;;;;;;;;3.50;3.00;;;;;;;;4970192;28;45409;-74
2024/02/09 08:09:16;;;;;;;;;5.50;2.00;;;;;;;;4956942;28;45605;-74
2024/02/09 08:11:43;;;;;;;;;5.00;2.33;;;;;;;;4975901;28;46410;-74
2024/02/09 08:14:09;;;;;;;;;3.00;2.50;;;;;;;;4952248;28;45811;-74
2024/02/09 08:16:34;;;;;;;;;3.00;3.00;;;;;;;;4954310;28;45330;-74
2024/02/09 08:18:59;;;;;;;;;3.67;2.67;;;;;;;;4972029;28;45621;-74
2024/02/09 08:21:24;;;;;;;;;4.67;2.33;;;;;;;;4961388;28;47137;-73
2024/02/09 08:23:50;;;;;;;;;3.25;3.00;;;;;;;;4958063;28;45481;-71
2024/02/09 08:26:15;;;;;;;;;2.00;0.75;;;;;;;;4975716;28;45520;-70
2024/02/09 08:28:43;;;;;;;;;6.00;3.25;;;;;;;;4952860;28;45873;-68
2024/02/09 08:31:13;;;;;;;;;3.00;3.00;;;;;;;;4947783;28;48314;-70
2024/02/09 08:33:39;;;;;;;;;5.00;3.25;;;;;;;;4971718;28;45614;-72
2024/02/09 08:36:05;;;;;;;;;3.50;3.00;;;;;;;;4953787;28;45704;-71
2024/02/09 08:38:30;;;;;;;;;3.25;3.00;;;;;;;;4973846;28;45440;-70
2024/02/09 08:40:55;;;;;;;;;2.50;2.25;;;;;;;;4978003;28;45500;-70
2024/02/09 08:43:20;;;;;;;;;2.00;2.00;;;;;;;;4949623;28;45476;-71
2024/02/09 08:45:46;;;;;;;;;3.00;1.00;;;;;;;;4961505;28;45457;-71
2024/02/09 08:48:11;;;;;;;;;4.00;2.00;;;;;;;;4976374;28;45456;-70
2024/02/09 08:50:36;;;;;;;;;2.00;2.00;;;;;;;;4957603;28;47164;-70
2024/02/09 08:53:04;;;;;;;;;5.25;3.50;;;;;;;;4961631;28;45414;-69
2024/02/09 08:55:29;;;;;;;;;2.75;2.50;;;;;;;;4954134;28;46092;-68
2024/02/09 08:57:55;;;;;;;;;3.00;3.00;;;;;;;;4969293;28;45534;-67
2024/02/09 09:00:20;;;;;;;;;5.00;3.50;;;;;;;;4967021;28;45504;-70
2024/02/09 09:02:52;;;;;;;;;3.33;2.00;;;;;;;;4951176;28;45696;-67
2024/02/09 09:05:17;;;;;;;;;2.00;1.00;;;;;;;;4954845;28;45854;-71
2024/02/09 09:07:44;;;;;;;;;3.00;2.00;;;;;;;;4979296;28;45538;-72
2024/02/09 09:10:09;;;;;;;;;5.00;3.00;;;;;;;;4975641;28;45913;-66
2024/02/09 09:12:36;;;;;;;;;3.00;2.00;;;;;;;;4978490;28;45613;-69
2024/02/09 09:15:04;;;;;;;;;4.00;2.00;;;;;;;;4974216;28;45470;-66
2024/02/09 09:17:30;;;;;;;;;2.75;2.75;;;;;;;;4957679;28;45560;-70
2024/02/09 09:19:55;;;;;;;;;2.25;2.25;;;;;;;;4969046;28;45825;-70
2024/02/09 09:22:20;;;;;;;;;2.00;2.00;;;;;;;;4974214;28;45392;-70
2024/02/09 09:24:46;;;;;;;;;3.00;1.00;;;;;;;;4960846;28;46003;-70
2024/02/09 09:27:11;;;;;;;;;2.50;2.50;;;;;;;;4958083;28;45569;-70
2024/02/09 09:29:37;;;;;;;;;8.75;6.75;;;;;;;;4964985;28;45557;-70
2024/02/09 09:32:02;;;;;;;;;2.00;2.00;;;;;;;;4959079;28;45772;-70
2024/02/09 09:34:27;;;;;;;;;3.75;2.00;;;;;;;;4958558;28;45563;-70
2024/02/09 09:36:53;;;;;;;;;4.00;3.00;;;;;;;;4960568;28;45802;-70
2024/02/09 09:39:18;;;;;;;;;5.50;2.00;;;;;;;;4974075;28;46291;-67
2024/02/09 09:41:44;;;;;;;;;4.00;3.00;;;;;;;;4952751;28;45330;-71
2024/02/09 09:44:09;;;;;;;;;1.25;1.00;;;;;;;;4972499;28;45401;-71
2024/02/09 09:46:38;;;;;;;;;2.00;1.67;;;;;;;;4931158;28;45391;-71
2024/02/09 09:49:03;;;;;;;;;2.25;1.50;;;;;;;;4970119;28;45559;-71
2024/02/09 09:51:33;;;;;;;;;4.25;2.25;;;;;;;;4977183;28;45508;-71
2024/02/09 09:54:00;;;;;;;;;5.50;3.25;;;;;;;;4973198;28;45490;-71
2024/02/09 09:56:26;;;;;;;;;3.00;2.75;;;;;;;;4946389;28;45580;-71
2024/02/09 09:58:51;;;;;;;;;4.75;2.00;;;;;;;;4957930;28;48557;-71
2024/02/09 10:01:16;;;;;;;;;4.00;2.00;;;;;;;;4974159;28;45298;-71
2024/02/09 10:03:43;;;;;;;;;5.00;1.00;;;;;;;;4970364;28;45318;-71
2024/02/09 10:06:08;;;;;;;;;5.50;4.00;;;;;;;;4963788;28;45887;-71
2024/02/09 10:08:38;;;;;;;;;5.33;3.00;;;;;;;;4965523;28;46309;-71
2024/02/09 10:11:08;;;;;;;;;4.25;1.00;;;;;;;;4971071;28;45309;-70
2024/02/09 10:13:37;;;;;;;;;6.75;4.00;;;;;;;;4978180;28;45396;-69
2024/02/09 10:16:03;;;;;;;;;3.75;3.00;;;;;;;;4978036;28;45680;-68
2024/02/09 10:18:33;;;;;;;;;1.25;1.25;;;;;;;;4951083;28;47214;-71
2024/02/09 10:20:59;;;;;;;;;3.75;2.00;;;;;;;;4959639;28;45643;-71
2024/02/09 10:23:27;;;;;;;;;2.25;1.25;;;;;;;;4970380;28;45594;-71
2024/02/09 10:25:52;;;;;;;;;4.75;2.00;;;;;;;;4975546;28;45467;-71
2024/02/09 10:28:17;;;;;;;;;4.00;3.00;;;;;;;;4974420;28;46045;-71
2024/02/09 10:30:43;;;;;;;;;2.00;2.00;;;;;;;;4977445;28;45405;-67
2024/02/09 10:33:10;;;;;;;;;2.00;2.00;;;;;;;;4964835;28;47006;-70
2024/02/09 10:35:35;;;;;;;;;2.00;1.50;;;;;;;;4969031;28;45374;-71
2024/02/09 10:38:00;;;;;;;;;4.00;3.00;;;;;;;;4974561;28;46211;-70
2024/02/09 10:40:26;;;;;;;;;2.75;1.50;;;;;;;;4965709;28;45543;-72
2024/02/09 10:42:51;;;;;;;;;3.50;2.00;;;;;;;;4973706;28;45356;-72
2024/02/09 10:45:17;;;;;;;;;2.50;2.50;;;;;;;;4971911;28;45725;-71
2024/02/09 10:47:44;;;;;;;;;2.00;2.00;;;;;;;;4956705;28;47311;-71
2024/02/09 10:50:10;;;;;;;;;5.75;3.25;;;;;;;;4968929;28;45392;-71
2024/02/09 10:52:37;;;;;;;;;2.75;1.75;;;;;;;;4977668;28;45560;-71
2024/02/09 10:55:05;;;;;;;;;2.25;2.00;;;;;;;;4977464;28;45455;-73
2024/02/09 10:57:33;;;;;;;;;4.50;2.50;;;;;;;;4965782;28;45801;-71
2024/02/09 11:00:00;;;;;;;;;4.00;4.00;;;;;;;;4963901;28;45667;-71
2024/02/09 11:02:29;;;;;;;;;5.75;5.00;;;;;;;;4977660;28;45590;-71
2024/02/09 11:04:55;;;;;;;;;2.25;2.25;;;;;;;;4972236;28;45585;-71
2024/02/09 11:07:21;;;;;;;;;3.25;2.00;;;;;;;;4958018;28;48097;-72
2024/02/09 11:09:46;;;;;;;;;3.00;2.00;;;;;;;;4952732;28;45580;-72
2024/02/09 11:12:12;;;;;;;;;2.67;2.67;;;;;;;;4974553;28;45673;-72
2024/02/09 11:14:38;;;;;;;;;2.25;2.25;;;;;;;;4954114;28;45569;-73
2024/02/09 11:17:06;;;;;;;;;4.75;4.00;;;;;;;;4972904;28;45937;-73
2024/02/09 11:19:35;;;;;;;;;1.50;1.50;;;;;;;;4978381;28;45730;-71
2024/02/09 11:22:01;;;;;;;;;3.25;2.25;;;;;;;;4960330;28;45782;-70
2024/02/09 11:24:27;;;;;;;;;2.25;2.00;;;;;;;;4957386;28;46042;-67
2024/02/09 11:26:52;;;;;;;;;2.00;2.00;;;;;;;;4972313;28;45275;-68
2024/02/09 11:29:18;;;;;;;;;2.00;2.00;;;;;;;;4980955;28;45332;-67
2024/02/09 11:31:48;;;;;;;;;4.75;1.75;;;;;;;;4982099;28;45372;-72
2024/02/09 11:34:16;;;;;;;;;2.00;2.00;;;;;;;;4969986;28;45372;-72
2024/02/09 11:36:41;;;;;;;;;4.00;2.50;;;;;;;;4962744;28;46181;-72
2024/02/09 11:39:09;;;;;;;;;2.25;2.00;;;;;;;;4980368;28;45395;-72
2024/02/09 11:41:36;;;;;;;;;2.00;2.00;;;;;;;;4980687;28;45582;-72
2024/02/09 11:44:01;;;;;;;;;1.75;1.75;;;;;;;;4981044;28;45875;-72
2024/02/09 11:46:27;;;;;;;;;3.00;2.25;;;;;;;;4963296;28;48157;-72
2024/02/09 11:48:52;;;;;;;;;4.75;3.00;;;;;;;;4981991;28;45499;-72
2024/02/09 11:51:21;;;;;;;;;3.00;2.00;;;;;;;;4982155;28;45569;-72
2024/02/09 11:53:50;;;;;;;;;1.25;1.25;;;;;;;;4982098;28;45345;-72
2024/02/09 11:56:16;;;;;;;;;4.50;3.25;;;;;;;;4980632;28;45426;-72
2024/02/09 11:58:41;;;;;;;;;3.00;3.00;;;;;;;;4981996;28;45420;-72
2024/02/09 12:01:07;;;;;;;;;3.00;2.25;;;;;;;;4981917;28;45519;-72
2024/02/09 12:03:32;;;;;;;;;3.50;3.25;;;;;;;;4977051;28;45448;-72
2024/02/09 12:05:58;;;;;;;;;4.00;3.00;;;;;;;;4973839;28;45566;-72
2024/02/09 12:08:23;;;;;;;;;4.00;4.00;;;;;;;;4963967;28;45380;-72
2024/02/09 12:10:50;;;;;;;;;5.75;3.75;;;;;;;;4981990;28;45314;-72
2024/02/09 12:13:15;;;;;;;;;5.25;4.00;;;;;;;;4981207;28;45527;-72
2024/02/09 12:15:40;;;;;;;;;3.00;2.00;;;;;;;;4981342;28;45333;-72
2024/02/09 12:18:08;;;;;;;;;5.25;3.00;;;;;;;;4980493;28;45309;-73
2024/02/09 12:20:33;;;;;;;;;3.50;3.25;;;;;;;;4981868;28;45462;-72
2024/02/09 12:23:00;;;;;;;;;2.67;2.67;;;;;;;;4964026;28;45433;-72
2024/02/09 12:25:25;;;;;;;;;4.25;4.00;;;;;;;;4981450;28;45435;-72
2024/02/09 12:27:58;;;;;;;;;6.33;3.33;;;;;;;;4981281;28;45542;-72
2024/02/09 12:30:25;;;;;;;;;11.75;10.50;;;;;;;;4981493;28;45451;-73
2024/02/09 12:32:51;;;;;;;;;3.50;3.50;;;;;;;;4980445;28;45530;-72
2024/02/09 12:35:25;;;;;;;;;2.25;1.25;;;;;;;;4981413;28;45491;-72
2024/02/09 12:37:51;;;;;;;;;9.00;5.00;;;;;;;;4970893;28;45576;-72
2024/02/09 12:40:16;;;;;;;;;4.75;3.25;;;;;;;;4981433;28;45405;-72
2024/02/09 12:42:41;;;;;;;;;6.00;3.00;;;;;;;;4981172;28;45353;-72
2024/02/09 12:45:06;;;;;;;;;3.33;3.33;;;;;;;;4981196;28;46297;-72
2024/02/09 12:47:32;;;;;;;;;3.00;3.00;;;;;;;;4981174;28;45422;-72
2024/02/09 12:49:57;;;;;;;;;3.67;3.67;;;;;;;;4981430;28;45310;-72
2024/02/09 12:52:25;;;;;;;;;5.50;2.75;;;;;;;;4981151;28;45539;-73
2024/02/09 12:54:54;;;;;;;;;3.00;2.00;;;;;;;;4980997;28;45258;-72
2024/02/09 12:57:19;;;;;;;;;6.25;3.25;;;;;;;;4980776;28;45405;-72
2024/02/09 12:59:44;;;;;;;;;4.75;3.00;;;;;;;;4981218;28;45423;-72
2024/02/09 13:02:10;;;;;;;;;6.00;4.25;;;;;;;;4981145;28;45409;-72
2024/02/09 13:04:38;;;;;;;;;3.75;3.00;;;;;;;;4967597;28;45389;-72
2024/02/09 13:07:06;;;;;;;;;3.75;3.00;;;;;;;;4981163;28;45443;-72
2024/02/09 13:09:31;;;;;;;;;5.00;3.00;;;;;;;;4950311;28;45437;-72
2024/02/09 13:11:56;;;;;;;;;5.75;3.00;;;;;;;;4980717;28;45304;-72
2024/02/09 13:14:23;;;;;;;;;4.50;2.75;;;;;;;;4980704;28;45677;-72
2024/02/09 13:16:48;;;;;;;;;5.75;2.75;;;;;;;;4955916;28;46210;-72
2024/02/09 13:19:18;;;;;;;;;4.33;3.00;;;;;;;;4975508;28;45587;-73
2024/02/09 13:21:43;;;;;;;;;2.00;2.00;;;;;;;;4963384;28;45446;-73
2024/02/09 13:24:08;;;;;;;;;4.00;4.00;;;;;;;;4980604;28;45579;-72
2024/02/09 13:26:33;;;;;;;;;3.33;1.67;;;;;;;;4980383;28;45428;-72
2024/02/09 13:29:01;;;;;;;;;6.25;3.50;;;;;;;;4980141;28;45330;-72
2024/02/09 13:31:26;;;;;;;;;5.25;3.25;;;;;;;;4980820;28;45394;-72
2024/02/09 13:33:51;;;;;;;;;4.33;3.00;;;;;;;;4962748;28;47311;-72
2024/02/09 13:36:17;;;;;;;;;4.67;3.67;;;;;;;;4973564;28;45497;-72
2024/02/09 13:38:42;;;;;;;;;7.33;3.33;;;;;;;;4975671;28;45345;-72
2024/02/09 13:41:07;;;;;;;;;4.00;3.00;;;;;;;;4980320;28;45222;-72
2024/02/09 13:43:32;;;;;;;;;3.00;3.00;;;;;;;;4980187;28;45460;-72
2024/02/09 13:45:57;;;;;;;;;4.00;4.00;;;;;;;;4980531;28;45274;-72
2024/02/09 13:48:23;;;;;;;;;4.25;2.75;;;;;;;;4980452;28;45612;-72
2024/02/09 13:50:48;;;;;;;;;4.25;4.25;;;;;;;;4980451;28;45534;-72
2024/02/09 13:53:17;;;;;;;;;4.75;4.00;;;;;;;;4980138;28;45533;-72
2024/02/09 13:55:43;;;;;;;;;5.75;5.00;;;;;;;;4980271;28;45514;-72
2024/02/09 13:58:09;;;;;;;;;3.75;3.75;;;;;;;;4979712;28;45464;-72
2024/02/09 14:00:34;;;;;;;;;7.00;6.00;;;;;;;;4980171;28;45307;-72
2024/02/09 14:03:00;;;;;;;;;3.00;3.00;;;;;;;;4961887;28;47131;-72
2024/02/09 14:05:25;;;;;;;;;4.00;3.00;;;;;;;;4967647;28;45457;-72
2024/02/09 14:07:50;;;;;;;;;3.00;3.00;;;;;;;;4962556;28;45366;-72
2024/02/09 14:10:16;;;;;;;;;2.50;2.50;;;;;;;;4962220;28;45491;-72
2024/02/09 14:12:41;;;;;;;;;6.00;4.25;;;;;;;;4961800;28;47247;-72
2024/02/09 14:15:08;;;;;;;;;5.00;4.00;;;;;;;;4980246;28;45354;-72
2024/02/09 14:17:34;;;;;;;;;4.00;4.00;;;;;;;;4979994;28;45770;-72
2024/02/09 14:20:00;;;;;;;;;4.00;3.00;;;;;;;;4979961;28;45338;-72
2024/02/09 14:22:25;;;;;;;;;3.25;3.25;;;;;;;;4979783;28;45372;-72
2024/02/09 14:24:50;;;;;;;;;7.67;4.00;;;;;;;;4962252;28;45406;-72
2024/02/09 14:27:15;;;;;;;;;6.00;4.00;;;;;;;;4979014;28;45523;-72
2024/02/09 14:29:41;;;;;;;;;4.00;3.00;;;;;;;;4979895;28;45497;-72
2024/02/09 14:32:09;;;;;;;;;4.75;4.00;;;;;;;;4977190;28;46795;-72
2024/02/09 14:34:35;;;;;;;;;3.25;3.00;;;;;;;;4979826;28;45413;-72
2024/02/09 14:37:00;;;;;;;;;5.00;3.75;;;;;;;;4967928;28;45281;-72
2024/02/09 14:39:26;;;;;;;;;5.33;5.00;;;;;;;;4978816;28;45330;-72
2024/02/09 14:41:51;;;;;;;;;0.67;0.67;;;;;;;;4961370;28;47445;-72
2024/02/09 14:44:16;;;;;;;;;5.25;2.75;;;;;;;;4979803;28;45345;-72
2024/02/09 14:46:49;;;;;;;;;5.00;4.50;;;;;;;;4979751;28;45254;-72
2024/02/09 14:49:14;;;;;;;;;6.25;4.00;;;;;;;;4979577;28;45475;-72
2024/02/09 14:51:44;;;;;;;;;5.25;4.50;;;;;;;;4979134;28;45258;-72
2024/02/09 14:54:09;;;;;;;;;5.75;4.25;;;;;;;;4978826;28;45530;-72
2024/02/09 14:56:34;;;;;;;;;1.50;1.50;;;;;;;;4978816;28;45392;-72
2024/02/09 14:59:00;;;;;;;;;2.00;2.00;;;;;;;;4978670;28;45487;-72
2024/02/09 15:01:25;;;;;;;;;3.00;3.00;;;;;;;;4978995;28;45576;-72
2024/02/09 15:03:51;;;;;;;;;5.33;4.00;;;;;;;;4972113;28;45461;-72
2024/02/09 15:06:17;;;;;;;;;3.50;3.50;;;;;;;;4973811;28;45402;-72
2024/02/09 15:08:43;;;;;;;;;5.50;4.50;;;;;;;;4961890;28;45353;-73
2024/02/09 15:11:09;;;;;;;;;4.00;4.00;;;;;;;;4978361;28;46287;-72
2024/02/09 15:13:34;;;;;;;;;4.00;2.75;;;;;;;;4979338;28;45501;-72
2024/02/09 15:15:59;;;;;;;;;4.00;4.00;;;;;;;;4979340;28;45288;-72
2024/02/09 15:18:24;;;;;;;;;5.67;3.00;;;;;;;;4979301;28;45366;-72
2024/02/09 15:20:50;;;;;;;;;2.00;2.00;;;;;;;;4979145;28;45951;-72
2024/02/09 15:23:16;;;;;;;;;1.75;1.75;;;;;;;;4979219;28;45477;-72
2024/02/09 15:25:42;;;;;;;;;4.00;2.00;;;;;;;;4961511;28;45351;-73
2024/02/09 15:28:07;;;;;;;;;2.00;2.00;;;;;;;;4978595;28;45548;-73
2024/02/09 15:30:32;;;;;;;;;3.75;2.00;;;;;;;;4978847;28;45358;-73
2024/02/09 15:32:57;;;;;;;;;3.00;2.00;;;;;;;;4977606;28;45519;-72
2024/02/09 15:35:23;;;;;;;;;2.00;2.00;;;;;;;;4961476;28;45312;-72
2024/02/09 15:37:48;;;;;;;;;2.00;2.00;;;;;;;;4950341;28;45621;-72
2024/02/09 15:40:13;;;;;;;;;2.50;1.50;;;;;;;;4978846;28;45421;-72
2024/02/09 15:42:40;;;;;;;;;4.00;3.00;;;;;;;;4978685;28;45491;-72
2024/02/09 15:45:06;;;;;;;;;2.00;2.00;;;;;;;;4978865;28;45388;-72
2024/02/09 15:47:31;;;;;;;;;4.00;2.00;;;;;;;;4978905;28;45449;-72
2024/02/09 15:49:56;;;;;;;;;5.00;3.00;;;;;;;;4978847;28;46292;-72
2024/02/09 15:52:21;;;;;;;;;5.00;3.00;;;;;;;;4981565;28;45388;-72
2024/02/09 15:54:47;;;;;;;;;2.00;2.00;;;;;;;;4982252;28;45356;-72
2024/02/09 15:57:12;;;;;;;;;3.75;3.00;;;;;;;;4964218;28;45457;-72
2024/02/09 15:59:39;;;;;;;;;1.00;1.00;;;;;;;;4981863;28;45372;-72
2024/02/09 16:02:04;;;;;;;;;0.00;0.00;;;;;;;;4982141;28;45382;-72
2024/02/09 16:04:30;;;;;;;;;4.00;2.00;;;;;;;;4969449;28;45817;-72
2024/02/09 16:06:55;;;;;;;;;3.00;3.00;;;;;;;;4981721;28;45410;-72
2024/02/09 16:09:20;;;;;;;;;2.00;2.00;;;;;;;;4981667;28;45561;-72
2024/02/09 16:11:46;;;;;;;;;3.00;3.00;;;;;;;;4981490;28;45372;-72
2024/02/09 16:14:11;;;;;;;;;2.25;2.00;;;;;;;;4982025;28;45379;-72
2024/02/09 16:16:37;;;;;;;;;3.00;2.00;;;;;;;;4968634;28;45499;-72
2024/02/09 16:19:03;;;;;;;;;3.00;3.00;;;;;;;;4981852;28;45242;-72
2024/02/09 16:21:32;;;;;;;;;3.75;2.25;;;;;;;;4981658;28;45471;-72
2024/02/09 16:23:59;;;;;;;;;3.00;3.00;;;;;;;;4981792;28;45546;-72